Time;durP1;ratioP1;P1;durP2;ratioP2;P2;SDS_P1;SDS_P2;PMS_P1;PMS_P2;Temp;Humidity;BMP_temperature;BMP_pressure;BME280_temperature;BME280_humidity;BME280_pressure;Samples;Min_cycle;Max_cycle;Signal;HPM_P1;HPM_P2
2024/01/19 00:01:22;;;;;;;18.55;5.97;;;;;;;;;;6272265;22;20019;-43
2024/01/19 00:03:49;;;;;;;15.23;5.80;;;;;;;;;;6277229;22;20452;-41
2024/01/19 00:06:17;;;;;;;12.65;5.57;;;;;;;;;;6267777;22;20065;-43
2024/01/19 00:08:45;;;;;;;14.67;5.97;;;;;;;;;;6273792;22;20346;-41
2024/01/19 00:11:16;;;;;;;12.70;5.15;;;;;;;;;;6275814;22;20025;-41
2024/01/19 00:13:46;;;;;;;13.20;5.20;;;;;;;;;;6272502;22;20026;-42
2024/01/19 00:16:13;;;;;;;13.63;5.47;;;;;;;;;;6280327;22;20015;-42
2024/01/19 00:18:41;;;;;;;12.45;5.68;;;;;;;;;;6269315;22;20022;-41
2024/01/19 00:21:09;;;;;;;14.63;5.00;;;;;;;;;;6274090;22;20015;-41
2024/01/19 00:23:36;;;;;;;13.30;5.10;;;;;;;;;;6232429;22;20023;-41
2024/01/19 00:26:04;;;;;;;12.70;5.65;;;;;;;;;;6273187;22;20267;-41
2024/01/19 00:28:32;;;;;;;14.32;5.22;;;;;;;;;;6239518;22;20027;-43
2024/01/19 00:31:01;;;;;;;11.98;5.97;;;;;;;;;;6268133;22;20096;-41
2024/01/19 00:33:29;;;;;;;13.50;4.47;;;;;;;;;;6268308;22;20019;-41
2024/01/19 00:35:57;;;;;;;12.75;5.00;;;;;;;;;;6280588;22;20020;-41
2024/01/19 00:38:25;;;;;;;16.15;5.70;;;;;;;;;;6260629;22;20094;-41
2024/01/19 00:40:52;;;;;;;16.67;5.75;;;;;;;;;;6282598;22;20183;-41
2024/01/19 00:43:21;;;;;;;11.60;5.80;;;;;;;;;;6274691;22;20463;-42
2024/01/19 00:45:48;;;;;;;12.10;5.13;;;;;;;;;;6267090;22;20015;-41
2024/01/19 00:48:18;;;;;;;11.82;5.07;;;;;;;;;;6268257;22;20401;-42
2024/01/19 00:50:46;;;;;;;15.55;5.25;;;;;;;;;;6244378;22;20042;-41
2024/01/19 00:53:14;;;;;;;13.93;5.22;;;;;;;;;;6275108;22;20019;-42
2024/01/19 00:55:42;;;;;;;12.98;5.28;;;;;;;;;;6266103;22;20045;-41
2024/01/19 00:58:10;;;;;;;17.90;5.50;;;;;;;;;;6276559;22;20019;-42
2024/01/19 01:00:38;;;;;;;13.70;4.90;;;;;;;;;;6223916;22;20020;-41
2024/01/19 01:03:06;;;;;;;11.32;4.30;;;;;;;;;;6227308;22;20022;-41
2024/01/19 01:05:37;;;;;;;12.50;4.72;;;;;;;;;;6227077;22;20015;-43
2024/01/19 01:08:05;;;;;;;12.88;4.10;;;;;;;;;;6247920;22;20016;-41
2024/01/19 01:10:33;;;;;;;10.97;4.70;;;;;;;;;;6239035;22;20019;-41
2024/01/19 01:13:02;;;;;;;10.50;4.45;;;;;;;;;;6216118;22;20046;-42
2024/01/19 01:15:30;;;;;;;11.95;4.20;;;;;;;;;;6233858;22;20015;-44
2024/01/19 01:17:58;;;;;;;12.48;5.13;;;;;;;;;;6229847;22;20295;-41
2024/01/19 01:20:26;;;;;;;12.02;5.03;;;;;;;;;;6243051;22;20580;-41
2024/01/19 01:22:55;;;;;;;11.07;4.83;;;;;;;;;;6236975;22;20501;-41
2024/01/19 01:25:22;;;;;;;12.25;4.80;;;;;;;;;;6207913;22;20016;-41
2024/01/19 01:27:50;;;;;;;14.48;5.05;;;;;;;;;;6219386;22;20158;-43
2024/01/19 01:30:18;;;;;;;12.55;4.88;;;;;;;;;;6234152;22;20026;-41
2024/01/19 01:32:45;;;;;;;14.95;5.70;;;;;;;;;;6240485;22;20019;-42
2024/01/19 01:35:13;;;;;;;12.17;5.37;;;;;;;;;;6241982;22;20465;-42
2024/01/19 01:37:41;;;;;;;14.85;4.55;;;;;;;;;;6208963;22;20098;-43
2024/01/19 01:40:11;;;;;;;15.35;5.18;;;;;;;;;;6232855;22;20023;-41
2024/01/19 01:42:40;;;;;;;13.93;5.30;;;;;;;;;;6238861;22;20020;-41
2024/01/19 01:45:09;;;;;;;13.10;5.00;;;;;;;;;;6235513;22;20019;-42
2024/01/19 01:47:36;;;;;;;10.90;4.73;;;;;;;;;;6245230;22;20494;-42
2024/01/19 01:50:05;;;;;;;16.40;5.30;;;;;;;;;;6233351;22;20024;-42
2024/01/19 01:52:33;;;;;;;11.00;4.68;;;;;;;;;;6219169;22;20016;-42
2024/01/19 01:55:00;;;;;;;18.20;5.30;;;;;;;;;;6210157;22;20517;-42
2024/01/19 01:57:30;;;;;;;15.02;5.43;;;;;;;;;;6233799;22;20523;-41
2024/01/19 01:59:57;;;;;;;12.17;4.90;;;;;;;;;;6247917;22;20102;-41
2024/01/19 02:02:25;;;;;;;13.95;4.80;;;;;;;;;;6264671;22;20533;-41
2024/01/19 02:04:53;;;;;;;11.45;4.38;;;;;;;;;;6274561;22;20101;-41
2024/01/19 02:07:21;;;;;;;12.63;4.80;;;;;;;;;;6269363;22;20018;-41
2024/01/19 02:09:50;;;;;;;12.35;4.85;;;;;;;;;;6273807;22;20057;-41
2024/01/19 02:12:18;;;;;;;11.63;4.80;;;;;;;;;;6280236;22;20018;-43
2024/01/19 02:14:47;;;;;;;12.00;4.88;;;;;;;;;;6274293;22;20011;-44
2024/01/19 02:17:15;;;;;;;16.27;5.15;;;;;;;;;;6271893;22;20076;-41
2024/01/19 02:19:43;;;;;;;13.23;4.63;;;;;;;;;;6272602;22;20420;-43
2024/01/19 02:22:11;;;;;;;11.07;4.50;;;;;;;;;;6262598;22;20016;-41
2024/01/19 02:24:40;;;;;;;11.83;4.20;;;;;;;;;;6273855;22;20019;-42
2024/01/19 02:27:09;;;;;;;15.57;4.70;;;;;;;;;;6253022;22;20434;-44
2024/01/19 02:29:37;;;;;;;11.98;4.70;;;;;;;;;;6243607;22;20026;-41
2024/01/19 02:32:05;;;;;;;13.38;4.38;;;;;;;;;;6270488;22;20384;-41
2024/01/19 02:34:35;;;;;;;11.73;4.47;;;;;;;;;;6277988;22;20488;-43
2024/01/19 02:37:05;;;;;;;9.53;3.93;;;;;;;;;;6244621;22;20334;-41
2024/01/19 02:39:33;;;;;;;13.20;4.57;;;;;;;;;;6272332;22;20285;-41
2024/01/19 02:42:02;;;;;;;11.25;4.25;;;;;;;;;;6271372;22;20019;-42
2024/01/19 02:44:30;;;;;;;12.15;3.78;;;;;;;;;;6276880;22;20447;-42
2024/01/19 02:46:58;;;;;;;11.88;4.43;;;;;;;;;;6270775;22;20053;-41
2024/01/19 02:49:25;;;;;;;11.93;3.70;;;;;;;;;;6281775;22;20026;-41
2024/01/19 02:51:53;;;;;;;11.90;4.28;;;;;;;;;;6273754;22;20102;-41
2024/01/19 02:54:21;;;;;;;10.55;3.40;;;;;;;;;;6278588;22;20094;-42
2024/01/19 02:56:49;;;;;;;10.23;3.90;;;;;;;;;;6280392;22;20522;-42
2024/01/19 02:59:18;;;;;;;13.95;3.97;;;;;;;;;;6276040;22;20081;-42
2024/01/19 03:01:46;;;;;;;12.63;4.03;;;;;;;;;;6284575;22;20011;-41
2024/01/19 03:04:14;;;;;;;9.98;3.58;;;;;;;;;;6251391;22;20517;-41
2024/01/19 03:06:41;;;;;;;12.82;4.25;;;;;;;;;;6276985;22;20019;-41
2024/01/19 03:09:09;;;;;;;11.77;3.80;;;;;;;;;;6276310;22;20210;-41
2024/01/19 03:11:37;;;;;;;10.63;4.13;;;;;;;;;;6252448;22;20432;-41
2024/01/19 03:14:05;;;;;;;11.43;4.30;;;;;;;;;;6236682;22;20590;-41
2024/01/19 03:16:34;;;;;;;11.57;4.15;;;;;;;;;;6278283;22;20023;-41
2024/01/19 03:19:05;;;;;;;16.42;3.85;;;;;;;;;;6273715;22;20026;-41
2024/01/19 03:21:32;;;;;;;12.32;4.22;;;;;;;;;;6281373;22;20018;-41
2024/01/19 03:24:00;;;;;;;11.10;4.30;;;;;;;;;;6244842;22;20469;-41
2024/01/19 03:26:28;;;;;;;12.20;4.43;;;;;;;;;;6277174;22;20019;-42
2024/01/19 03:28:57;;;;;;;14.15;4.70;;;;;;;;;;6253564;22;20026;-41
2024/01/19 03:31:25;;;;;;;14.27;4.47;;;;;;;;;;6261899;22;20026;-42
2024/01/19 03:33:54;;;;;;;12.05;4.53;;;;;;;;;;6273558;22;20506;-41
2024/01/19 03:36:24;;;;;;;10.90;4.43;;;;;;;;;;6270376;22;20015;-42
2024/01/19 03:38:52;;;;;;;11.63;4.27;;;;;;;;;;6271999;22;20019;-41
2024/01/19 03:41:19;;;;;;;12.40;4.30;;;;;;;;;;6271544;22;20023;-43
2024/01/19 03:43:47;;;;;;;11.63;4.50;;;;;;;;;;6282127;22;20015;-42
2024/01/19 03:46:15;;;;;;;10.10;4.40;;;;;;;;;;6272681;22;20019;-41
2024/01/19 03:48:43;;;;;;;14.25;4.32;;;;;;;;;;6276336;22;20768;-43
2024/01/19 03:51:13;;;;;;;14.30;4.63;;;;;;;;;;6275317;22;20019;-42
2024/01/19 03:53:42;;;;;;;11.57;4.20;;;;;;;;;;6253104;22;20034;-44
2024/01/19 03:56:12;;;;;;;11.48;4.28;;;;;;;;;;6278853;22;20477;-43
2024/01/19 03:58:40;;;;;;;12.88;4.40;;;;;;;;;;6275706;22;20022;-42
2024/01/19 04:01:07;;;;;;;13.57;4.65;;;;;;;;;;6235311;22;20026;-41
2024/01/19 04:03:35;;;;;;;15.73;4.47;;;;;;;;;;6269644;22;20273;-42
2024/01/19 04:06:03;;;;;;;15.30;5.18;;;;;;;;;;6254360;22;20015;-42
2024/01/19 04:08:32;;;;;;;9.65;3.95;;;;;;;;;;6245524;22;20027;-43
2024/01/19 04:11:01;;;;;;;13.45;4.65;;;;;;;;;;6269559;22;20043;-41
2024/01/19 04:13:28;;;;;;;11.38;4.40;;;;;;;;;;6237045;22;20022;-43
2024/01/19 04:15:56;;;;;;;12.40;4.07;;;;;;;;;;6278077;22;20068;-41
2024/01/19 04:18:24;;;;;;;9.82;4.03;;;;;;;;;;6255182;22;20022;-41
2024/01/19 04:20:52;;;;;;;12.18;4.43;;;;;;;;;;6270198;22;20023;-41
2024/01/19 04:23:19;;;;;;;10.75;3.92;;;;;;;;;;6253207;22;20411;-41
2024/01/19 04:25:48;;;;;;;11.65;4.43;;;;;;;;;;6274528;22;20015;-41
2024/01/19 04:28:18;;;;;;;9.47;4.00;;;;;;;;;;6248839;22;20019;-41
2024/01/19 04:30:45;;;;;;;9.25;3.95;;;;;;;;;;6273566;22;20019;-41
2024/01/19 04:33:13;;;;;;;10.73;4.28;;;;;;;;;;6270588;22;20039;-41
2024/01/19 04:35:41;;;;;;;13.70;4.75;;;;;;;;;;6268433;22;20042;-41
2024/01/19 04:38:11;;;;;;;11.95;4.35;;;;;;;;;;6257873;22;20034;-42
2024/01/19 04:40:39;;;;;;;10.27;4.73;;;;;;;;;;6240595;22;20462;-41
2024/01/19 04:43:08;;;;;;;11.13;4.40;;;;;;;;;;6245122;22;20015;-41
2024/01/19 04:45:36;;;;;;;11.35;3.67;;;;;;;;;;6262319;22;20015;-41
2024/01/19 04:48:04;;;;;;;12.15;4.53;;;;;;;;;;6253067;22;20030;-42
2024/01/19 04:50:31;;;;;;;9.80;4.28;;;;;;;;;;6276464;22;20016;-41
2024/01/19 04:52:59;;;;;;;9.77;3.77;;;;;;;;;;6270179;22;20460;-41
2024/01/19 04:55:27;;;;;;;13.20;3.90;;;;;;;;;;6273406;22;20080;-41
2024/01/19 04:57:55;;;;;;;10.43;3.72;;;;;;;;;;6274202;22;20369;-41
2024/01/19 05:00:24;;;;;;;15.52;3.60;;;;;;;;;;6270990;22;20020;-42
2024/01/19 05:02:52;;;;;;;11.45;3.13;;;;;;;;;;6279786;22;20012;-44
2024/01/19 05:05:20;;;;;;;9.50;3.60;;;;;;;;;;6262493;22;20658;-42
2024/01/19 05:07:50;;;;;;;12.35;3.58;;;;;;;;;;6275007;22;20098;-43
2024/01/19 05:10:19;;;;;;;11.45;3.83;;;;;;;;;;6279331;22;20034;-42
2024/01/19 05:12:46;;;;;;;10.73;3.05;;;;;;;;;;6270474;22;20019;-41
2024/01/19 05:15:14;;;;;;;11.05;3.30;;;;;;;;;;6272342;22;20023;-41
2024/01/19 05:17:43;;;;;;;11.27;3.53;;;;;;;;;;6283148;22;20015;-41
2024/01/19 05:20:12;;;;;;;10.68;3.72;;;;;;;;;;6262794;22;20457;-41
2024/01/19 05:22:39;;;;;;;9.88;3.60;;;;;;;;;;6274782;22;20019;-41
2024/01/19 05:25:08;;;;;;;11.50;3.72;;;;;;;;;;6263249;22;20019;-41
2024/01/19 05:27:36;;;;;;;11.00;3.63;;;;;;;;;;6270632;22;20389;-43
2024/01/19 05:30:04;;;;;;;15.40;3.20;;;;;;;;;;6251559;22;20098;-41
2024/01/19 05:32:32;;;;;;;10.05;3.80;;;;;;;;;;6273836;22;20054;-41
2024/01/19 05:35:01;;;;;;;11.60;3.45;;;;;;;;;;6271236;22;20022;-41
2024/01/19 05:37:29;;;;;;;10.18;3.72;;;;;;;;;;6278377;22;20030;-41
2024/01/19 05:39:57;;;;;;;10.57;3.58;;;;;;;;;;6277043;22;20524;-41
2024/01/19 05:42:25;;;;;;;10.80;3.60;;;;;;;;;;6268280;22;20478;-41
2024/01/19 05:44:53;;;;;;;11.55;3.88;;;;;;;;;;6279323;22;20015;-41
2024/01/19 05:47:20;;;;;;;11.63;3.58;;;;;;;;;;6273172;22;20038;-41
2024/01/19 05:49:48;;;;;;;11.88;4.13;;;;;;;;;;6258769;22;20022;-42
2024/01/19 05:52:18;;;;;;;10.80;3.88;;;;;;;;;;6269385;22;20015;-42
2024/01/19 05:54:46;;;;;;;9.20;3.10;;;;;;;;;;6262998;22;20015;-42
2024/01/19 05:57:14;;;;;;;11.82;4.07;;;;;;;;;;6275059;22;20027;-43
2024/01/19 05:59:41;;;;;;;13.68;4.15;;;;;;;;;;6253151;22;20030;-42
2024/01/19 06:02:09;;;;;;;10.05;4.00;;;;;;;;;;6265978;22;20097;-43
2024/01/19 06:04:38;;;;;;;9.02;3.42;;;;;;;;;;6267719;22;20338;-44
2024/01/19 06:07:06;;;;;;;10.37;3.83;;;;;;;;;;6268398;22;20038;-41
2024/01/19 06:09:35;;;;;;;13.82;4.05;;;;;;;;;;6272091;22;20015;-41
2024/01/19 06:12:05;;;;;;;15.07;3.97;;;;;;;;;;6266347;22;20019;-42
2024/01/19 06:14:33;;;;;;;10.38;3.92;;;;;;;;;;6278846;22;20029;-42
2024/01/19 06:17:01;;;;;;;10.38;3.88;;;;;;;;;;6258401;22;20264;-41
2024/01/19 06:19:29;;;;;;;12.63;3.80;;;;;;;;;;6239240;22;20097;-41
2024/01/19 06:21:56;;;;;;;10.45;3.88;;;;;;;;;;6259873;22;20505;-41
2024/01/19 06:24:26;;;;;;;11.23;4.18;;;;;;;;;;6265215;22;20466;-41
2024/01/19 06:26:55;;;;;;;8.60;3.63;;;;;;;;;;6252661;22;20768;-41
2024/01/19 06:29:22;;;;;;;12.90;3.92;;;;;;;;;;6247553;22;20696;-40
2024/01/19 06:31:51;;;;;;;9.23;3.53;;;;;;;;;;6271757;22;20019;-41
2024/01/19 06:34:19;;;;;;;10.02;3.83;;;;;;;;;;6266686;22;20094;-41
2024/01/19 06:36:46;;;;;;;12.27;4.25;;;;;;;;;;6276023;22;20019;-40
2024/01/19 06:39:14;;;;;;;8.88;3.35;;;;;;;;;;6256519;22;20080;-40
2024/01/19 06:41:43;;;;;;;10.63;3.20;;;;;;;;;;6272660;22;20026;-40
2024/01/19 06:44:12;;;;;;;11.47;3.77;;;;;;;;;;6264597;22;20023;-41
2024/01/19 06:46:44;;;;;;;10.32;3.75;;;;;;;;;;6265824;22;20015;-41
2024/01/19 06:49:12;;;;;;;13.93;3.33;;;;;;;;;;6262664;22;20465;-42
2024/01/19 06:51:40;;;;;;;11.23;3.63;;;;;;;;;;6268122;22;20050;-40
2024/01/19 06:54:07;;;;;;;12.77;4.80;;;;;;;;;;6275354;22;20016;-41
2024/01/19 06:56:35;;;;;;;13.03;3.77;;;;;;;;;;6235179;22;20041;-41
2024/01/19 06:59:05;;;;;;;12.82;4.22;;;;;;;;;;6281964;22;20075;-40
2024/01/19 07:01:38;;;;;;;10.95;4.25;;;;;;;;;;6276793;22;20022;-40
2024/01/19 07:04:06;;;;;;;10.70;4.22;;;;;;;;;;6263076;22;20061;-41
2024/01/19 07:06:35;;;;;;;10.23;3.90;;;;;;;;;;6270311;22;20102;-41
2024/01/19 07:09:04;;;;;;;13.53;4.00;;;;;;;;;;6250406;22;20016;-40
2024/01/19 07:11:33;;;;;;;12.25;4.05;;;;;;;;;;6235208;22;20019;-41
2024/01/19 07:14:02;;;;;;;12.57;3.78;;;;;;;;;;6277604;22;20015;-40
2024/01/19 07:16:29;;;;;;;9.77;4.07;;;;;;;;;;6271260;22;20019;-40
2024/01/19 07:19:00;;;;;;;14.88;5.15;;;;;;;;;;6268123;22;20525;-41
2024/01/19 07:21:28;;;;;;;11.40;4.53;;;;;;;;;;6265398;22;20771;-40
2024/01/19 07:23:56;;;;;;;13.65;4.88;;;;;;;;;;6275725;22;20019;-41
2024/01/19 07:26:23;;;;;;;12.90;4.65;;;;;;;;;;6264177;22;20025;-40
2024/01/19 07:28:51;;;;;;;12.07;4.45;;;;;;;;;;6251039;22;20450;-40
2024/01/19 07:31:19;;;;;;;10.65;4.50;;;;;;;;;;6261129;22;20487;-41
2024/01/19 07:33:51;;;;;;;14.60;4.33;;;;;;;;;;6263591;22;20022;-40
2024/01/19 07:36:20;;;;;;;12.05;4.70;;;;;;;;;;6270200;22;20022;-40
2024/01/19 07:38:48;;;;;;;14.20;5.13;;;;;;;;;;6278994;22;20054;-40
2024/01/19 07:41:17;;;;;;;12.35;4.63;;;;;;;;;;6258720;22;20069;-41
2024/01/19 07:43:44;;;;;;;11.68;4.72;;;;;;;;;;6263433;22;20022;-40
2024/01/19 07:46:14;;;;;;;15.37;5.30;;;;;;;;;;6220799;22;20019;-40
2024/01/19 07:48:42;;;;;;;14.07;5.10;;;;;;;;;;6255591;22;20060;-40
2024/01/19 07:51:10;;;;;;;14.15;4.95;;;;;;;;;;6253412;22;20051;-40
2024/01/19 07:53:39;;;;;;;9.77;4.75;;;;;;;;;;6268119;22;20026;-41
2024/01/19 07:56:07;;;;;;;12.70;5.22;;;;;;;;;;6269401;22;20058;-40
2024/01/19 07:58:35;;;;;;;14.07;4.63;;;;;;;;;;6258491;22;20015;-41
2024/01/19 08:01:04;;;;;;;13.32;5.30;;;;;;;;;;6264673;22;20068;-40
2024/01/19 08:03:52;;;;;;;14.25;5.30;;;;;;;;;;6246325;22;20038;-39
2024/01/19 08:06:20;;;;;;;10.52;4.90;;;;;;;;;;6252213;22;20098;-39
2024/01/19 08:08:49;;;;;;;15.65;5.47;;;;;;;;;;6269155;22;20019;-40
2024/01/19 08:11:20;;;;;;;12.77;4.40;;;;;;;;;;6272885;22;20519;-40
2024/01/19 08:13:49;;;;;;;11.68;5.15;;;;;;;;;;6260707;22;20019;-39
2024/01/19 08:16:17;;;;;;;13.40;5.70;;;;;;;;;;6264963;22;20461;-40
2024/01/19 08:18:44;;;;;;;10.98;4.68;;;;;;;;;;6255762;22;20015;-40
2024/01/19 08:21:13;;;;;;;11.70;4.45;;;;;;;;;;6260937;22;20015;-40
2024/01/19 08:23:40;;;;;;;14.63;5.27;;;;;;;;;;6261780;22;20019;-40
2024/01/19 08:26:09;;;;;;;13.77;5.20;;;;;;;;;;6231325;22;20264;-40
2024/01/19 08:28:54;;;;;;;15.38;5.20;;;;;;;;;;6242995;22;20011;-40
2024/01/19 08:31:24;;;;;;;15.52;4.95;;;;;;;;;;6253426;22;20011;-41
2024/01/19 08:33:53;;;;;;;13.48;5.50;;;;;;;;;;6266188;22;20023;-40
2024/01/19 08:36:24;;;;;;;17.70;5.70;;;;;;;;;;6256244;22;20019;-40
2024/01/19 08:38:52;;;;;;;13.45;5.47;;;;;;;;;;6256046;22;20015;-42
2024/01/19 08:41:21;;;;;;;13.07;4.68;;;;;;;;;;6220253;22;20060;-40
2024/01/19 08:43:54;;;;;;;14.85;4.70;;;;;;;;;;6231821;22;20023;-41
2024/01/19 08:46:22;;;;;;;16.40;4.85;;;;;;;;;;6260099;22;20015;-40
2024/01/19 08:48:50;;;;;;;11.97;4.37;;;;;;;;;;6255194;22;20042;-40
2024/01/19 08:51:22;;;;;;;13.20;4.60;;;;;;;;;;6243281;22;20271;-40
2024/01/19 08:53:50;;;;;;;14.20;5.13;;;;;;;;;;6253762;22;20027;-40
2024/01/19 08:56:22;;;;;;;18.42;4.80;;;;;;;;;;6252785;22;20023;-40
2024/01/19 08:58:50;;;;;;;15.57;5.13;;;;;;;;;;6220196;22;20019;-40
2024/01/19 09:01:18;;;;;;;13.20;4.13;;;;;;;;;;6256310;22;20019;-40
2024/01/19 09:03:46;;;;;;;11.18;4.43;;;;;;;;;;6217652;22;20046;-40
2024/01/19 09:06:14;;;;;;;14.27;4.55;;;;;;;;;;6259838;22;20019;-40
2024/01/19 09:08:43;;;;;;;14.63;4.75;;;;;;;;;;6246129;22;20442;-40
2024/01/19 09:11:11;;;;;;;9.73;4.43;;;;;;;;;;6198693;22;20348;-40
2024/01/19 09:13:40;;;;;;;13.50;4.50;;;;;;;;;;6251795;22;20029;-40
2024/01/19 09:16:08;;;;;;;11.68;3.83;;;;;;;;;;6263918;22;20011;-40
2024/01/19 09:18:36;;;;;;;11.52;4.53;;;;;;;;;;6266111;22;20015;-39
2024/01/19 09:21:05;;;;;;;11.18;4.18;;;;;;;;;;6239246;22;20597;-41
2024/01/19 09:23:33;;;;;;;14.88;4.57;;;;;;;;;;6237974;22;20069;-40
2024/01/19 09:26:00;;;;;;;12.20;4.30;;;;;;;;;;6259479;22;20042;-40
2024/01/19 09:28:28;;;;;;;12.82;4.38;;;;;;;;;;6229260;22;20250;-40
2024/01/19 09:30:57;;;;;;;12.63;4.13;;;;;;;;;;6267044;22;20015;-39
2024/01/19 09:33:30;;;;;;;12.02;4.32;;;;;;;;;;6270696;22;20012;-40
2024/01/19 09:35:58;;;;;;;13.93;4.55;;;;;;;;;;6260904;22;20046;-40
2024/01/19 09:38:26;;;;;;;10.83;3.70;;;;;;;;;;6276272;22;20011;-40
2024/01/19 09:40:59;;;;;;;12.73;4.22;;;;;;;;;;6256774;22;20015;-40
2024/01/19 09:43:26;;;;;;;12.43;4.00;;;;;;;;;;6265710;22;20090;-40
2024/01/19 09:45:55;;;;;;;13.02;4.35;;;;;;;;;;6267855;22;20019;-40
2024/01/19 09:48:26;;;;;;;11.27;3.85;;;;;;;;;;6252650;22;20054;-40
2024/01/19 09:50:57;;;;;;;11.43;4.00;;;;;;;;;;6269570;22;20030;-42
2024/01/19 09:53:27;;;;;;;14.10;4.93;;;;;;;;;;6261631;22;20349;-40
2024/01/19 09:55:55;;;;;;;13.82;5.18;;;;;;;;;;6238803;22;20015;-39
2024/01/19 09:58:23;;;;;;;16.58;5.13;;;;;;;;;;6263967;22;20038;-41
2024/01/19 10:00:52;;;;;;;15.80;5.63;;;;;;;;;;6268627;22;20377;-40
2024/01/19 10:03:22;;;;;;;12.97;4.67;;;;;;;;;;6256602;22;20460;-40
2024/01/19 10:05:52;;;;;;;18.38;5.35;;;;;;;;;;6271098;22;20030;-40
2024/01/19 10:08:21;;;;;;;17.58;5.63;;;;;;;;;;6267278;22;20015;-40
2024/01/19 10:10:50;;;;;;;20.33;8.15;;;;;;;;;;6247244;22;20069;-40
2024/01/19 10:13:18;;;;;;;25.27;9.35;;;;;;;;;;6227026;22;20031;-40
2024/01/19 10:15:46;;;;;;;24.03;9.60;;;;;;;;;;6273995;22;20370;-40
2024/01/19 10:18:14;;;;;;;21.58;7.68;;;;;;;;;;6261076;22;20176;-40
2024/01/19 10:20:43;;;;;;;17.17;6.57;;;;;;;;;;6273595;22;20015;-40
2024/01/19 10:23:23;;;;;;;22.17;6.65;;;;;;;;;;6262194;22;20469;-40
2024/01/19 10:25:51;;;;;;;20.33;6.18;;;;;;;;;;6257995;22;20228;-42
2024/01/19 10:28:29;;;;;;;19.37;6.80;;;;;;;;;;6237212;22;20019;-40
2024/01/19 10:31:11;;;;;;;18.73;6.50;;;;;;;;;;6244102;22;20508;-40
2024/01/19 10:33:47;;;;;;;19.63;6.03;;;;;;;;;;6246069;22;20023;-40
2024/01/19 10:36:16;;;;;;;19.30;7.22;;;;;;;;;;6260815;22;20026;-40
2024/01/19 10:38:45;;;;;;;19.17;6.18;;;;;;;;;;6268607;22;20490;-40
2024/01/19 10:41:17;;;;;;;18.57;6.30;;;;;;;;;;6263827;22;20043;-42
2024/01/19 10:43:45;;;;;;;17.08;6.80;;;;;;;;;;6269214;22;20061;-42
2024/01/19 10:46:18;;;;;;;20.02;6.10;;;;;;;;;;6265379;22;20019;-40
2024/01/19 10:48:46;;;;;;;19.70;5.95;;;;;;;;;;6269914;22;20019;-42
2024/01/19 10:51:15;;;;;;;17.60;5.10;;;;;;;;;;6273133;22;20047;-41
2024/01/19 10:53:43;;;;;;;15.37;4.83;;;;;;;;;;6258878;22;20027;-41
2024/01/19 10:56:17;;;;;;;15.23;4.10;;;;;;;;;;6258100;22;20422;-42
2024/01/19 10:58:45;;;;;;;14.82;4.03;;;;;;;;;;6221727;22;20015;-41
2024/01/19 11:01:14;;;;;;;14.75;4.35;;;;;;;;;;6272674;22;20030;-41
2024/01/19 11:03:42;;;;;;;12.95;4.25;;;;;;;;;;6207492;22;20575;-41
2024/01/19 11:06:10;;;;;;;15.23;4.33;;;;;;;;;;6266175;22;20612;-41
2024/01/19 11:08:40;;;;;;;12.07;4.18;;;;;;;;;;6259806;22;20385;-40
2024/01/19 11:11:09;;;;;;;15.82;3.78;;;;;;;;;;6245480;22;20050;-41
2024/01/19 11:13:41;;;;;;;13.45;4.18;;;;;;;;;;6244755;22;20354;-41
2024/01/19 11:16:14;;;;;;;13.00;4.15;;;;;;;;;;6257392;22;20015;-42
2024/01/19 11:18:44;;;;;;;13.40;4.10;;;;;;;;;;6212813;22;20426;-41
2024/01/19 11:21:12;;;;;;;12.35;3.53;;;;;;;;;;6253376;22;20107;-42
2024/01/19 11:23:41;;;;;;;13.10;3.75;;;;;;;;;;6218041;22;20086;-41
2024/01/19 11:26:22;;;;;;;13.18;3.90;;;;;;;;;;6222270;22;20415;-43
2024/01/19 11:28:55;;;;;;;11.88;3.15;;;;;;;;;;6224332;22;20019;-41
2024/01/19 11:31:26;;;;;;;10.97;3.20;;;;;;;;;;6241001;22;20558;-41
2024/01/19 11:33:59;;;;;;;10.57;3.58;;;;;;;;;;6252663;22;20023;-41
2024/01/19 11:36:47;;;;;;;10.25;3.47;;;;;;;;;;6232484;22;20031;-43
2024/01/19 11:39:30;;;;;;;9.93;2.97;;;;;;;;;;6245772;22;20019;-41
2024/01/19 11:41:57;;;;;;;12.07;3.03;;;;;;;;;;6252412;22;20019;-42
2024/01/19 11:44:43;;;;;;;10.13;3.17;;;;;;;;;;6207255;22;20320;-41
2024/01/19 11:47:35;;;;;;;12.10;3.20;;;;;;;;;;6234639;22;20015;-41
2024/01/19 11:50:04;;;;;;;10.38;2.67;;;;;;;;;;6184944;22;20396;-42
2024/01/19 11:52:39;;;;;;;13.02;3.70;;;;;;;;;;6228608;22;20015;-41
2024/01/19 11:55:27;;;;;;;9.32;2.97;;;;;;;;;;6243068;22;20015;-41
2024/01/19 11:57:56;;;;;;;10.23;2.97;;;;;;;;;;6239362;22;20022;-41
2024/01/19 12:00:25;;;;;;;10.38;3.13;;;;;;;;;;6245866;22;20043;-46
2024/01/19 12:02:55;;;;;;;9.48;2.70;;;;;;;;;;6255240;22;20053;-42
2024/01/19 12:05:25;;;;;;;12.30;2.90;;;;;;;;;;6240870;22;20023;-40
2024/01/19 12:08:02;;;;;;;13.63;3.15;;;;;;;;;;6247565;22;20514;-43
2024/01/19 12:10:30;;;;;;;9.87;2.97;;;;;;;;;;6238031;22;20023;-41
2024/01/19 12:12:59;;;;;;;9.98;3.08;;;;;;;;;;6231388;22;20472;-42
2024/01/19 12:15:28;;;;;;;10.25;3.13;;;;;;;;;;6244453;22;20278;-41
2024/01/19 12:17:57;;;;;;;8.55;2.22;;;;;;;;;;6246288;22;20081;-41
2024/01/19 12:20:27;;;;;;;11.70;3.35;;;;;;;;;;6223297;22;20430;-42
2024/01/19 12:22:56;;;;;;;10.53;3.07;;;;;;;;;;6238727;22;20037;-42
2024/01/19 12:25:26;;;;;;;11.32;2.72;;;;;;;;;;6236145;22;20027;-42
2024/01/19 12:28:02;;;;;;;13.07;2.50;;;;;;;;;;6205126;22;20666;-41
2024/01/19 12:30:33;;;;;;;7.57;2.33;;;;;;;;;;6228001;22;20034;-42
2024/01/19 12:33:13;;;;;;;7.68;2.25;;;;;;;;;;6243943;22;20546;-44
2024/01/19 12:35:41;;;;;;;10.37;2.03;;;;;;;;;;6215962;22;20024;-42
2024/01/19 12:38:09;;;;;;;7.40;2.05;;;;;;;;;;6239836;22;20015;-42
2024/01/19 12:40:40;;;;;;;7.53;2.20;;;;;;;;;;6236948;22;20316;-43
2024/01/19 12:43:08;;;;;;;8.68;2.20;;;;;;;;;;6250415;22;20471;-42
2024/01/19 12:45:37;;;;;;;5.40;1.27;;;;;;;;;;6243477;22;20023;-42
2024/01/19 12:48:06;;;;;;;5.83;1.70;;;;;;;;;;6219133;22;20796;-42
2024/01/19 12:50:45;;;;;;;6.47;2.35;;;;;;;;;;6259067;22;20012;-43
2024/01/19 12:53:14;;;;;;;7.68;2.10;;;;;;;;;;6251726;22;20085;-41
2024/01/19 12:55:44;;;;;;;8.50;2.30;;;;;;;;;;6248920;22;20031;-42
2024/01/19 12:58:13;;;;;;;9.45;2.28;;;;;;;;;;6252928;22;20507;-42
2024/01/19 13:00:42;;;;;;;8.33;2.30;;;;;;;;;;6248505;22;20471;-43
2024/01/19 13:03:11;;;;;;;6.85;2.42;;;;;;;;;;6207185;22;20233;-43
2024/01/19 13:05:41;;;;;;;8.15;1.95;;;;;;;;;;6255638;22;20027;-42
2024/01/19 13:08:10;;;;;;;7.70;2.25;;;;;;;;;;6239208;22;20114;-42
2024/01/19 13:10:38;;;;;;;7.38;2.00;;;;;;;;;;6232417;22;20019;-43
2024/01/19 13:13:09;;;;;;;8.60;2.17;;;;;;;;;;6242435;22;20201;-42
2024/01/19 13:15:37;;;;;;;8.57;2.30;;;;;;;;;;6255647;22;20751;-42
2024/01/19 13:18:11;;;;;;;8.30;1.65;;;;;;;;;;6245491;22;20027;-42
2024/01/19 13:20:39;;;;;;;5.40;1.50;;;;;;;;;;6255806;22;20019;-43
2024/01/19 13:23:07;;;;;;;6.68;1.90;;;;;;;;;;6211456;22;20011;-42
2024/01/19 13:25:36;;;;;;;8.67;2.03;;;;;;;;;;6243581;22;20093;-43
2024/01/19 13:28:04;;;;;;;5.75;1.63;;;;;;;;;;6195160;22;20612;-41
2024/01/19 13:30:32;;;;;;;4.60;1.10;;;;;;;;;;6243211;22;20482;-42
2024/01/19 13:33:01;;;;;;;7.68;1.38;;;;;;;;;;6248459;22;20015;-42
2024/01/19 13:35:31;;;;;;;7.13;1.50;;;;;;;;;;6272290;22;20791;-44
2024/01/19 13:37:59;;;;;;;6.17;1.30;;;;;;;;;;6263442;22;20035;-43
2024/01/19 13:40:29;;;;;;;7.22;1.40;;;;;;;;;;6273212;22;20449;-42
2024/01/19 13:42:57;;;;;;;7.50;1.48;;;;;;;;;;6252914;22;20019;-42
2024/01/19 13:45:25;;;;;;;7.47;1.40;;;;;;;;;;6269203;22;20019;-42
2024/01/19 13:47:53;;;;;;;5.10;1.20;;;;;;;;;;6258881;22;20015;-42
2024/01/19 13:50:21;;;;;;;6.27;1.30;;;;;;;;;;6262280;22;20120;-43
2024/01/19 13:52:51;;;;;;;4.60;0.77;;;;;;;;;;6229085;22;20386;-42
2024/01/19 13:55:21;;;;;;;5.88;1.27;;;;;;;;;;6270213;22;20069;-43
2024/01/19 13:57:49;;;;;;;5.88;0.70;;;;;;;;;;6248010;22;20477;-42
2024/01/19 14:00:17;;;;;;;7.75;1.42;;;;;;;;;;6220430;22;20011;-42
2024/01/19 14:02:46;;;;;;;3.97;0.70;;;;;;;;;;6238444;22;20042;-42
2024/01/19 14:05:14;;;;;;;4.75;0.63;;;;;;;;;;6240863;22;20023;-42
2024/01/19 14:07:42;;;;;;;7.05;1.00;;;;;;;;;;6252414;22;20015;-42
2024/01/19 14:10:12;;;;;;;6.05;1.20;;;;;;;;;;6259527;22;20017;-42
2024/01/19 14:12:40;;;;;;;8.55;1.30;;;;;;;;;;6222951;22;20019;-42
2024/01/19 14:15:08;;;;;;;13.30;2.10;;;;;;;;;;6240752;22;20192;-43
2024/01/19 14:17:37;;;;;;;8.25;1.77;;;;;;;;;;6275439;22;20015;-43
2024/01/19 14:20:06;;;;;;;7.55;1.40;;;;;;;;;;6266485;22;20470;-42
2024/01/19 14:22:34;;;;;;;5.50;1.33;;;;;;;;;;6245162;22;20470;-42
2024/01/19 14:25:02;;;;;;;4.55;0.80;;;;;;;;;;6249264;22;20125;-42
2024/01/19 14:27:31;;;;;;;4.80;0.70;;;;;;;;;;6223151;22;20022;-43
2024/01/19 14:29:59;;;;;;;7.63;1.20;;;;;;;;;;6249796;22;20011;-42
2024/01/19 14:32:27;;;;;;;5.93;0.95;;;;;;;;;;6243010;22;20101;-44
2024/01/19 14:34:55;;;;;;;6.80;1.00;;;;;;;;;;6264804;22;20015;-42
2024/01/19 14:37:25;;;;;;;7.68;1.20;;;;;;;;;;6269276;22;20045;-43
2024/01/19 14:39:54;;;;;;;5.90;1.10;;;;;;;;;;6268234;22;20016;-42
2024/01/19 14:42:22;;;;;;;7.88;1.67;;;;;;;;;;6252573;22;20031;-43
2024/01/19 14:44:51;;;;;;;5.53;1.38;;;;;;;;;;6247207;22;20022;-43